Pagina principale
METAR-TAF:

METAR-TAF

Aeroporti :

Aeroporto di Olbia-Costa Smeralda

Olbia, Italia

latitudine: 40-54N, longitudine: 009-31E, altezza: 11 m

Osservazione

Il bollettino è stato emesso 31 minuti fa, alle 15:50 UTC
Vento 9 kt da nord-est
Temperature 29°C
Umidità 58%
Pressione 1011 hPa
Visibilità 10 km o più
nessuna nube inferiore a 1500 m e nessun cumulonembo

METAR: LIEO 131550Z 05009KT CAVOK 29/20 Q1011

Ora: 18:21 (16:21 UTC)

Previsione

Il bollettino è stato emesso 5 ore e 21 minuti fa, alle 11:00 UTC
Previsione valida dal 13 alle 12 UTC al 14 alle 12 UTC
Vento 10 kt da nord-est
Visibilità 10 km o più
Nuvoloso ad un'altezza di 4000 ft
Temporaneamente
dal 13 alle 12 UTC al 13 alle 17 UTC
Poco nuvoloso ad un'altezza di 2000 ft, Cumulonembo.
rovesci di pioggia
Evoluzione graduale
dal 13 alle 17 UTC al 13 alle 19 UTC
Vento 5 kt da direzioni variabili

TAF: LIEO 131100Z 1312/1412 04010KT 9999 BKN040 TEMPO 1312/1317 SHRA FEW020CB BECMG 1317/1319 VRB05KT

Osservazioni e previsioni meteorologiche di più di 4000 aeroporti (messaggi METAR e TAF).

Le stazioni disponibili sono rappresentate dai dischi gialli e rossi sulla carta.

Puntare il mouse per vedere il nome della stazione.

Clicca sopra per visualizzare le osservazioni e previsioni meteorologiche.

Per cambiare la mappa : fare clic sui pulsanti verdi con una croce nera per ingrandire, il pulsante verde con un trattino per diminuire, o sulla freccia verde per le mappe adiacenti.


METAR-TAF: